Terminal Aerodrome Forecast
Issued by NWS

Home | Current Version | Previous Version | Text Only | Print | Product List | Glossary On
Versions: 1 2 3 4 5 6 7 8 9 10 11 12
000
FTUS43 KICT 250520
TAFRSL
TAF
KRSL 250520Z 2506/2606 15009KT P6SM FEW100 BKN250
     FM251200 07008KT 6SM BR BKN250
     FM251400 VRB06KT P6SM BKN200
     FM251700 35013KT P6SM BKN025
     FM252300 36015G22KT P6SM VCSH OVC020=

USA.gov is the U.S. government's official web portal to all federal, state and local government web resources and services.